sensor_id;sensor_type;location;lat;lon;timestamp;P1;durP1;ratioP1;P2;durP2;ratioP2
37559;SDS011;23398;50.928;7.084;2024-02-21T00:00:12;7.50;;;3.30;;
37559;SDS011;23398;50.928;7.084;2024-02-21T00:02:39;5.97;;;3.05;;
37559;SDS011;23398;50.928;7.084;2024-02-21T00:05:05;7.75;;;3.60;;
37559;SDS011;23398;50.928;7.084;2024-02-21T00:07:31;8.23;;;3.55;;
37559;SDS011;23398;50.928;7.084;2024-02-21T00:09:56;7.47;;;3.40;;
37559;SDS011;23398;50.928;7.084;2024-02-21T00:12:22;7.78;;;3.42;;
37559;SDS011;23398;50.928;7.084;2024-02-21T00:14:47;5.63;;;3.33;;
37559;SDS011;23398;50.928;7.084;2024-02-21T00:17:13;6.32;;;3.30;;
37559;SDS011;23398;50.928;7.084;2024-02-21T00:19:38;5.95;;;3.22;;
37559;SDS011;23398;50.928;7.084;2024-02-21T00:22:04;7.05;;;3.63;;
37559;SDS011;23398;50.928;7.084;2024-02-21T00:24:30;7.75;;;3.75;;
37559;SDS011;23398;50.928;7.084;2024-02-21T00:26:55;7.82;;;3.42;;
37559;SDS011;23398;50.928;7.084;2024-02-21T00:29:21;4.82;;;3.33;;
37559;SDS011;23398;50.928;7.084;2024-02-21T00:31:47;6.47;;;3.83;;
37559;SDS011;23398;50.928;7.084;2024-02-21T00:34:14;6.22;;;2.92;;
37559;SDS011;23398;50.928;7.084;2024-02-21T00:36:39;7.53;;;3.38;;
37559;SDS011;23398;50.928;7.084;2024-02-21T00:39:05;7.97;;;3.80;;
37559;SDS011;23398;50.928;7.084;2024-02-21T00:41:31;6.35;;;3.72;;
37559;SDS011;23398;50.928;7.084;2024-02-21T00:43:57;6.40;;;3.70;;
37559;SDS011;23398;50.928;7.084;2024-02-21T00:46:22;7.82;;;3.47;;
37559;SDS011;23398;50.928;7.084;2024-02-21T00:48:48;5.95;;;3.28;;
37559;SDS011;23398;50.928;7.084;2024-02-21T00:51:15;7.70;;;3.78;;
37559;SDS011;23398;50.928;7.084;2024-02-21T00:53:41;7.35;;;3.70;;
37559;SDS011;23398;50.928;7.084;2024-02-21T00:56:07;7.18;;;3.60;;
37559;SDS011;23398;50.928;7.084;2024-02-21T00:58:33;8.50;;;3.70;;
37559;SDS011;23398;50.928;7.084;2024-02-21T01:01:00;6.03;;;3.35;;
37559;SDS011;23398;50.928;7.084;2024-02-21T01:03:25;6.68;;;3.40;;
37559;SDS011;23398;50.928;7.084;2024-02-21T01:05:51;7.25;;;3.58;;
37559;SDS011;23398;50.928;7.084;2024-02-21T01:08:17;4.85;;;3.25;;
37559;SDS011;23398;50.928;7.084;2024-02-21T01:10:42;5.07;;;3.03;;
37559;SDS011;23398;50.928;7.084;2024-02-21T01:13:08;8.90;;;3.28;;
37559;SDS011;23398;50.928;7.084;2024-02-21T01:15:34;5.07;;;3.40;;
37559;SDS011;23398;50.928;7.084;2024-02-21T01:18:00;5.82;;;3.72;;
37559;SDS011;23398;50.928;7.084;2024-02-21T01:20:26;4.88;;;3.13;;
37559;SDS011;23398;50.928;7.084;2024-02-21T01:22:51;6.57;;;3.20;;
37559;SDS011;23398;50.928;7.084;2024-02-21T01:25:17;6.00;;;3.40;;
37559;SDS011;23398;50.928;7.084;2024-02-21T01:27:43;6.50;;;3.38;;
37559;SDS011;23398;50.928;7.084;2024-02-21T01:30:08;5.05;;;3.17;;
37559;SDS011;23398;50.928;7.084;2024-02-21T01:32:35;6.18;;;3.40;;
37559;SDS011;23398;50.928;7.084;2024-02-21T01:35:01;6.25;;;3.33;;
37559;SDS011;23398;50.928;7.084;2024-02-21T01:37:26;6.63;;;3.22;;
37559;SDS011;23398;50.928;7.084;2024-02-21T01:39:52;7.00;;;3.35;;
37559;SDS011;23398;50.928;7.084;2024-02-21T01:42:18;6.75;;;3.45;;
37559;SDS011;23398;50.928;7.084;2024-02-21T01:44:43;4.88;;;3.22;;
37559;SDS011;23398;50.928;7.084;2024-02-21T01:47:10;5.53;;;3.40;;
37559;SDS011;23398;50.928;7.084;2024-02-21T01:49:38;5.63;;;3.20;;
37559;SDS011;23398;50.928;7.084;2024-02-21T01:52:05;5.50;;;3.17;;
37559;SDS011;23398;50.928;7.084;2024-02-21T01:54:31;6.57;;;3.60;;
37559;SDS011;23398;50.928;7.084;2024-02-21T01:56:57;5.50;;;3.08;;
37559;SDS011;23398;50.928;7.084;2024-02-21T01:59:23;5.60;;;3.17;;
37559;SDS011;23398;50.928;7.084;2024-02-21T02:01:49;6.95;;;3.25;;
37559;SDS011;23398;50.928;7.084;2024-02-21T02:04:16;4.82;;;2.85;;
37559;SDS011;23398;50.928;7.084;2024-02-21T02:06:42;6.22;;;3.40;;
37559;SDS011;23398;50.928;7.084;2024-02-21T02:09:08;6.90;;;3.15;;
37559;SDS011;23398;50.928;7.084;2024-02-21T02:11:34;4.60;;;3.00;;
37559;SDS011;23398;50.928;7.084;2024-02-21T02:14:00;4.70;;;2.88;;
37559;SDS011;23398;50.928;7.084;2024-02-21T02:16:25;6.10;;;3.00;;
37559;SDS011;23398;50.928;7.084;2024-02-21T02:18:51;6.40;;;3.38;;
37559;SDS011;23398;50.928;7.084;2024-02-21T02:21:24;5.70;;;2.83;;
37559;SDS011;23398;50.928;7.084;2024-02-21T02:23:53;6.55;;;3.08;;
37559;SDS011;23398;50.928;7.084;2024-02-21T02:26:19;5.32;;;2.92;;
37559;SDS011;23398;50.928;7.084;2024-02-21T02:28:44;6.28;;;3.00;;
37559;SDS011;23398;50.928;7.084;2024-02-21T02:31:10;4.60;;;2.92;;
37559;SDS011;23398;50.928;7.084;2024-02-21T02:33:36;7.70;;;3.22;;
37559;SDS011;23398;50.928;7.084;2024-02-21T02:36:01;7.03;;;3.00;;
37559;SDS011;23398;50.928;7.084;2024-02-21T02:38:27;5.72;;;2.85;;
37559;SDS011;23398;50.928;7.084;2024-02-21T02:40:53;4.65;;;2.78;;
37559;SDS011;23398;50.928;7.084;2024-02-21T02:43:18;4.68;;;2.72;;
37559;SDS011;23398;50.928;7.084;2024-02-21T02:45:44;5.93;;;3.00;;
37559;SDS011;23398;50.928;7.084;2024-02-21T02:48:09;6.60;;;3.03;;
37559;SDS011;23398;50.928;7.084;2024-02-21T02:50:35;5.65;;;2.95;;
37559;SDS011;23398;50.928;7.084;2024-02-21T02:53:00;5.40;;;2.88;;
37559;SDS011;23398;50.928;7.084;2024-02-21T02:55:26;7.97;;;3.05;;
37559;SDS011;23398;50.928;7.084;2024-02-21T02:57:52;5.80;;;2.72;;
37559;SDS011;23398;50.928;7.084;2024-02-21T03:00:17;6.13;;;2.80;;
37559;SDS011;23398;50.928;7.084;2024-02-21T03:02:44;5.78;;;3.28;;
37559;SDS011;23398;50.928;7.084;2024-02-21T03:05:12;7.53;;;3.20;;
37559;SDS011;23398;50.928;7.084;2024-02-21T03:07:42;6.95;;;3.38;;
37559;SDS011;23398;50.928;7.084;2024-02-21T03:10:08;6.53;;;2.85;;
37559;SDS011;23398;50.928;7.084;2024-02-21T03:12:35;6.30;;;2.83;;
37559;SDS011;23398;50.928;7.084;2024-02-21T03:15:01;4.78;;;3.20;;
37559;SDS011;23398;50.928;7.084;2024-02-21T03:17:27;5.35;;;3.05;;
37559;SDS011;23398;50.928;7.084;2024-02-21T03:19:53;7.53;;;2.85;;
37559;SDS011;23398;50.928;7.084;2024-02-21T03:22:20;5.30;;;3.00;;
37559;SDS011;23398;50.928;7.084;2024-02-21T03:24:46;6.70;;;2.90;;
37559;SDS011;23398;50.928;7.084;2024-02-21T03:27:12;4.68;;;2.75;;
37559;SDS011;23398;50.928;7.084;2024-02-21T03:29:37;5.32;;;2.88;;
37559;SDS011;23398;50.928;7.084;2024-02-21T03:32:03;5.15;;;2.80;;
37559;SDS011;23398;50.928;7.084;2024-02-21T03:34:28;5.95;;;2.70;;
37559;SDS011;23398;50.928;7.084;2024-02-21T03:36:54;5.47;;;2.92;;
37559;SDS011;23398;50.928;7.084;2024-02-21T03:39:19;4.90;;;2.65;;
37559;SDS011;23398;50.928;7.084;2024-02-21T03:41:46;7.55;;;3.13;;
37559;SDS011;23398;50.928;7.084;2024-02-21T03:44:12;5.30;;;2.90;;
37559;SDS011;23398;50.928;7.084;2024-02-21T03:46:37;5.85;;;3.00;;
37559;SDS011;23398;50.928;7.084;2024-02-21T03:49:03;8.13;;;2.95;;
37559;SDS011;23398;50.928;7.084;2024-02-21T03:51:28;6.75;;;2.90;;
37559;SDS011;23398;50.928;7.084;2024-02-21T03:53:54;7.50;;;2.70;;
37559;SDS011;23398;50.928;7.084;2024-02-21T03:56:19;4.78;;;2.30;;
37559;SDS011;23398;50.928;7.084;2024-02-21T03:58:45;6.68;;;2.85;;
37559;SDS011;23398;50.928;7.084;2024-02-21T04:01:10;6.15;;;2.65;;
37559;SDS011;23398;50.928;7.084;2024-02-21T04:03:37;3.95;;;2.60;;
37559;SDS011;23398;50.928;7.084;2024-02-21T04:06:03;4.68;;;2.60;;
37559;SDS011;23398;50.928;7.084;2024-02-21T04:08:28;6.93;;;2.63;;
37559;SDS011;23398;50.928;7.084;2024-02-21T04:10:54;6.57;;;3.30;;
37559;SDS011;23398;50.928;7.084;2024-02-21T04:13:19;5.50;;;2.60;;
37559;SDS011;23398;50.928;7.084;2024-02-21T04:15:45;5.43;;;2.78;;
37559;SDS011;23398;50.928;7.084;2024-02-21T04:18:10;5.32;;;2.42;;
37559;SDS011;23398;50.928;7.084;2024-02-21T04:20:36;5.57;;;2.70;;
37559;SDS011;23398;50.928;7.084;2024-02-21T04:23:01;4.65;;;2.33;;
37559;SDS011;23398;50.928;7.084;2024-02-21T04:25:27;4.00;;;2.17;;
37559;SDS011;23398;50.928;7.084;2024-02-21T04:27:53;6.63;;;2.80;;
37559;SDS011;23398;50.928;7.084;2024-02-21T04:30:18;5.53;;;2.88;;
37559;SDS011;23398;50.928;7.084;2024-02-21T04:32:44;5.28;;;2.63;;
37559;SDS011;23398;50.928;7.084;2024-02-21T04:35:10;4.88;;;2.50;;
37559;SDS011;23398;50.928;7.084;2024-02-21T04:37:35;6.50;;;2.70;;
37559;SDS011;23398;50.928;7.084;2024-02-21T04:40:01;7.03;;;2.42;;
37559;SDS011;23398;50.928;7.084;2024-02-21T04:42:26;5.85;;;2.90;;
37559;SDS011;23398;50.928;7.084;2024-02-21T04:44:52;4.82;;;2.53;;
37559;SDS011;23398;50.928;7.084;2024-02-21T04:47:18;5.65;;;2.60;;
37559;SDS011;23398;50.928;7.084;2024-02-21T04:49:44;5.03;;;2.53;;
37559;SDS011;23398;50.928;7.084;2024-02-21T04:52:11;4.43;;;2.58;;
37559;SDS011;23398;50.928;7.084;2024-02-21T04:54:36;5.10;;;2.38;;
37559;SDS011;23398;50.928;7.084;2024-02-21T04:57:02;6.15;;;3.00;;
37559;SDS011;23398;50.928;7.084;2024-02-21T04:59:28;5.47;;;2.58;;
37559;SDS011;23398;50.928;7.084;2024-02-21T05:01:54;5.68;;;2.75;;
37559;SDS011;23398;50.928;7.084;2024-02-21T05:04:20;6.10;;;2.60;;
37559;SDS011;23398;50.928;7.084;2024-02-21T05:06:45;5.43;;;2.55;;
37559;SDS011;23398;50.928;7.084;2024-02-21T05:09:11;5.85;;;2.78;;
37559;SDS011;23398;50.928;7.084;2024-02-21T05:11:37;6.07;;;2.30;;
37559;SDS011;23398;50.928;7.084;2024-02-21T05:14:03;4.95;;;2.38;;
37559;SDS011;23398;50.928;7.084;2024-02-21T05:16:29;5.40;;;2.47;;
37559;SDS011;23398;50.928;7.084;2024-02-21T05:18:55;6.05;;;2.47;;
37559;SDS011;23398;50.928;7.084;2024-02-21T05:21:22;4.93;;;2.80;;
37559;SDS011;23398;50.928;7.084;2024-02-21T05:23:53;5.25;;;2.60;;
37559;SDS011;23398;50.928;7.084;2024-02-21T05:26:24;3.90;;;2.60;;
37559;SDS011;23398;50.928;7.084;2024-02-21T05:28:51;5.32;;;2.50;;
37559;SDS011;23398;50.928;7.084;2024-02-21T05:31:20;5.00;;;2.47;;
37559;SDS011;23398;50.928;7.084;2024-02-21T05:33:46;4.75;;;2.42;;
37559;SDS011;23398;50.928;7.084;2024-02-21T05:36:12;4.57;;;2.50;;
37559;SDS011;23398;50.928;7.084;2024-02-21T05:38:38;6.43;;;2.40;;
37559;SDS011;23398;50.928;7.084;2024-02-21T05:41:04;6.30;;;2.53;;
37559;SDS011;23398;50.928;7.084;2024-02-21T05:43:30;9.93;;;2.70;;
37559;SDS011;23398;50.928;7.084;2024-02-21T05:45:56;3.38;;;2.17;;
37559;SDS011;23398;50.928;7.084;2024-02-21T05:48:22;6.78;;;2.22;;
37559;SDS011;23398;50.928;7.084;2024-02-21T05:50:48;4.20;;;2.15;;
37559;SDS011;23398;50.928;7.084;2024-02-21T05:53:14;3.75;;;2.45;;
37559;SDS011;23398;50.928;7.084;2024-02-21T05:55:40;6.18;;;2.53;;
37559;SDS011;23398;50.928;7.084;2024-02-21T05:58:06;5.55;;;2.30;;
37559;SDS011;23398;50.928;7.084;2024-02-21T06:00:32;4.88;;;2.40;;
37559;SDS011;23398;50.928;7.084;2024-02-21T06:02:58;3.50;;;2.28;;
37559;SDS011;23398;50.928;7.084;2024-02-21T06:05:24;2.88;;;2.03;;
37559;SDS011;23398;50.928;7.084;2024-02-21T06:07:49;8.18;;;2.30;;
37559;SDS011;23398;50.928;7.084;2024-02-21T06:10:15;4.72;;;2.08;;
37559;SDS011;23398;50.928;7.084;2024-02-21T06:12:41;4.75;;;2.30;;
37559;SDS011;23398;50.928;7.084;2024-02-21T06:15:06;4.35;;;2.35;;
37559;SDS011;23398;50.928;7.084;2024-02-21T06:17:32;5.68;;;2.45;;
37559;SDS011;23398;50.928;7.084;2024-02-21T06:19:58;4.68;;;2.22;;
37559;SDS011;23398;50.928;7.084;2024-02-21T06:22:23;6.05;;;2.35;;
37559;SDS011;23398;50.928;7.084;2024-02-21T06:24:49;3.97;;;2.00;;
37559;SDS011;23398;50.928;7.084;2024-02-21T06:27:15;5.45;;;2.20;;
37559;SDS011;23398;50.928;7.084;2024-02-21T06:29:41;4.35;;;2.22;;
37559;SDS011;23398;50.928;7.084;2024-02-21T06:32:07;4.68;;;2.15;;
37559;SDS011;23398;50.928;7.084;2024-02-21T06:34:32;4.63;;;2.10;;
37559;SDS011;23398;50.928;7.084;2024-02-21T06:36:58;5.10;;;2.13;;
37559;SDS011;23398;50.928;7.084;2024-02-21T06:39:23;3.47;;;2.08;;
37559;SDS011;23398;50.928;7.084;2024-02-21T06:41:49;5.95;;;2.28;;
37559;SDS011;23398;50.928;7.084;2024-02-21T06:44:18;5.45;;;2.17;;
37559;SDS011;23398;50.928;7.084;2024-02-21T06:46:44;5.20;;;2.30;;
37559;SDS011;23398;50.928;7.084;2024-02-21T06:49:10;3.20;;;2.25;;
37559;SDS011;23398;50.928;7.084;2024-02-21T06:51:41;2.85;;;1.98;;
37559;SDS011;23398;50.928;7.084;2024-02-21T06:54:07;3.95;;;2.03;;
37559;SDS011;23398;50.928;7.084;2024-02-21T06:56:34;3.60;;;2.13;;
37559;SDS011;23398;50.928;7.084;2024-02-21T06:59:00;3.20;;;2.22;;
37559;SDS011;23398;50.928;7.084;2024-02-21T07:01:26;5.45;;;2.50;;
37559;SDS011;23398;50.928;7.084;2024-02-21T07:03:51;3.80;;;2.30;;
37559;SDS011;23398;50.928;7.084;2024-02-21T07:06:17;3.63;;;2.00;;
37559;SDS011;23398;50.928;7.084;2024-02-21T07:08:43;5.22;;;2.22;;
37559;SDS011;23398;50.928;7.084;2024-02-21T07:11:08;3.80;;;1.90;;
37559;SDS011;23398;50.928;7.084;2024-02-21T07:13:34;3.70;;;2.10;;
37559;SDS011;23398;50.928;7.084;2024-02-21T07:15:59;4.53;;;2.13;;
37559;SDS011;23398;50.928;7.084;2024-02-21T07:18:25;4.25;;;2.20;;
37559;SDS011;23398;50.928;7.084;2024-02-21T07:20:51;5.35;;;2.05;;
37559;SDS011;23398;50.928;7.084;2024-02-21T07:23:17;6.07;;;2.10;;
37559;SDS011;23398;50.928;7.084;2024-02-21T07:25:43;4.82;;;1.83;;
37559;SDS011;23398;50.928;7.084;2024-02-21T07:28:08;4.50;;;2.20;;
37559;SDS011;23398;50.928;7.084;2024-02-21T07:30:34;4.85;;;1.98;;
37559;SDS011;23398;50.928;7.084;2024-02-21T07:33:00;3.55;;;1.92;;
37559;SDS011;23398;50.928;7.084;2024-02-21T07:35:26;4.65;;;2.17;;
37559;SDS011;23398;50.928;7.084;2024-02-21T07:37:51;5.10;;;2.10;;
37559;SDS011;23398;50.928;7.084;2024-02-21T07:40:17;6.95;;;2.00;;
37559;SDS011;23398;50.928;7.084;2024-02-21T07:42:43;3.92;;;2.08;;
37559;SDS011;23398;50.928;7.084;2024-02-21T07:45:09;4.85;;;2.17;;
37559;SDS011;23398;50.928;7.084;2024-02-21T07:47:35;4.88;;;2.28;;
37559;SDS011;23398;50.928;7.084;2024-02-21T07:50:02;4.38;;;2.03;;
37559;SDS011;23398;50.928;7.084;2024-02-21T07:52:28;4.85;;;2.00;;
37559;SDS011;23398;50.928;7.084;2024-02-21T07:54:54;5.18;;;2.30;;
37559;SDS011;23398;50.928;7.084;2024-02-21T07:57:19;4.80;;;2.20;;
37559;SDS011;23398;50.928;7.084;2024-02-21T07:59:45;4.20;;;2.20;;
37559;SDS011;23398;50.928;7.084;2024-02-21T08:02:13;4.68;;;2.20;;
37559;SDS011;23398;50.928;7.084;2024-02-21T08:04:39;6.97;;;2.42;;
37559;SDS011;23398;50.928;7.084;2024-02-21T08:07:04;5.10;;;2.20;;
37559;SDS011;23398;50.928;7.084;2024-02-21T08:09:30;5.13;;;2.38;;
37559;SDS011;23398;50.928;7.084;2024-02-21T08:11:56;4.65;;;2.40;;
37559;SDS011;23398;50.928;7.084;2024-02-21T08:14:21;4.15;;;2.20;;
37559;SDS011;23398;50.928;7.084;2024-02-21T08:16:49;6.57;;;2.90;;
37559;SDS011;23398;50.928;7.084;2024-02-21T08:19:16;5.78;;;2.50;;
37559;SDS011;23398;50.928;7.084;2024-02-21T08:21:42;4.38;;;2.28;;
37559;SDS011;23398;50.928;7.084;2024-02-21T08:24:07;6.95;;;2.78;;
37559;SDS011;23398;50.928;7.084;2024-02-21T08:26:33;4.93;;;2.28;;
37559;SDS011;23398;50.928;7.084;2024-02-21T08:28:58;6.00;;;2.50;;
37559;SDS011;23398;50.928;7.084;2024-02-21T08:31:25;4.05;;;2.33;;
37559;SDS011;23398;50.928;7.084;2024-02-21T08:33:56;5.47;;;2.35;;
37559;SDS011;23398;50.928;7.084;2024-02-21T08:36:27;5.00;;;2.28;;
37559;SDS011;23398;50.928;7.084;2024-02-21T08:38:54;5.57;;;2.55;;
37559;SDS011;23398;50.928;7.084;2024-02-21T08:41:20;4.70;;;2.50;;
37559;SDS011;23398;50.928;7.084;2024-02-21T08:43:48;5.53;;;3.08;;
37559;SDS011;23398;50.928;7.084;2024-02-21T08:46:14;4.38;;;2.33;;
37559;SDS011;23398;50.928;7.084;2024-02-21T08:48:39;8.20;;;2.97;;
37559;SDS011;23398;50.928;7.084;2024-02-21T08:51:05;5.95;;;2.70;;
37559;SDS011;23398;50.928;7.084;2024-02-21T08:53:31;4.75;;;2.38;;
37559;SDS011;23398;50.928;7.084;2024-02-21T08:55:56;4.97;;;2.33;;
37559;SDS011;23398;50.928;7.084;2024-02-21T08:58:22;5.05;;;2.47;;
37559;SDS011;23398;50.928;7.084;2024-02-21T09:00:49;7.45;;;2.72;;
37559;SDS011;23398;50.928;7.084;2024-02-21T09:03:16;6.97;;;2.78;;
37559;SDS011;23398;50.928;7.084;2024-02-21T09:05:42;4.78;;;2.30;;
37559;SDS011;23398;50.928;7.084;2024-02-21T09:08:08;6.00;;;2.40;;
37559;SDS011;23398;50.928;7.084;2024-02-21T09:10:34;5.72;;;2.50;;
37559;SDS011;23398;50.928;7.084;2024-02-21T09:12:59;5.28;;;2.63;;
37559;SDS011;23398;50.928;7.084;2024-02-21T09:15:25;5.40;;;2.38;;
37559;SDS011;23398;50.928;7.084;2024-02-21T09:17:51;5.13;;;2.47;;
37559;SDS011;23398;50.928;7.084;2024-02-21T09:20:17;4.40;;;2.08;;
37559;SDS011;23398;50.928;7.084;2024-02-21T09:22:43;3.90;;;2.30;;
37559;SDS011;23398;50.928;7.084;2024-02-21T09:25:08;4.35;;;2.25;;
37559;SDS011;23398;50.928;7.084;2024-02-21T09:27:36;5.50;;;2.30;;
37559;SDS011;23398;50.928;7.084;2024-02-21T09:30:03;5.88;;;2.28;;
37559;SDS011;23398;50.928;7.084;2024-02-21T09:32:30;4.95;;;2.53;;
37559;SDS011;23398;50.928;7.084;2024-02-21T09:34:55;5.93;;;2.35;;
37559;SDS011;23398;50.928;7.084;2024-02-21T09:37:21;4.47;;;2.30;;
37559;SDS011;23398;50.928;7.084;2024-02-21T09:39:47;4.68;;;2.15;;
37559;SDS011;23398;50.928;7.084;2024-02-21T09:42:12;5.45;;;2.20;;
37559;SDS011;23398;50.928;7.084;2024-02-21T09:44:41;4.97;;;2.22;;
37559;SDS011;23398;50.928;7.084;2024-02-21T09:47:10;3.90;;;2.22;;
37559;SDS011;23398;50.928;7.084;2024-02-21T09:49:42;4.82;;;2.15;;
37559;SDS011;23398;50.928;7.084;2024-02-21T09:52:09;3.78;;;2.30;;
37559;SDS011;23398;50.928;7.084;2024-02-21T09:54:38;5.38;;;2.42;;
37559;SDS011;23398;50.928;7.084;2024-02-21T09:57:07;5.20;;;2.00;;
37559;SDS011;23398;50.928;7.084;2024-02-21T09:59:33;4.53;;;2.13;;
37559;SDS011;23398;50.928;7.084;2024-02-21T10:01:59;6.70;;;2.20;;
37559;SDS011;23398;50.928;7.084;2024-02-21T10:04:25;4.88;;;2.13;;
37559;SDS011;23398;50.928;7.084;2024-02-21T10:06:51;3.55;;;1.90;;
37559;SDS011;23398;50.928;7.084;2024-02-21T10:09:21;3.65;;;2.03;;
37559;SDS011;23398;50.928;7.084;2024-02-21T10:11:54;3.67;;;2.00;;
37559;SDS011;23398;50.928;7.084;2024-02-21T10:14:33;4.43;;;2.03;;
37559;SDS011;23398;50.928;7.084;2024-02-21T10:16:58;5.30;;;2.17;;
37559;SDS011;23398;50.928;7.084;2024-02-21T10:19:24;5.10;;;2.20;;
37559;SDS011;23398;50.928;7.084;2024-02-21T10:22:06;5.00;;;2.08;;
37559;SDS011;23398;50.928;7.084;2024-02-21T10:24:33;8.75;;;2.45;;
37559;SDS011;23398;50.928;7.084;2024-02-21T10:27:01;5.18;;;2.13;;
37559;SDS011;23398;50.928;7.084;2024-02-21T10:29:28;3.45;;;1.88;;
37559;SDS011;23398;50.928;7.084;2024-02-21T10:34:30;5.75;;;2.35;;
37559;SDS011;23398;50.928;7.084;2024-02-21T10:37:08;5.93;;;2.40;;
37559;SDS011;23398;50.928;7.084;2024-02-21T10:39:36;3.80;;;2.08;;
37559;SDS011;23398;50.928;7.084;2024-02-21T10:42:03;7.25;;;2.45;;
37559;SDS011;23398;50.928;7.084;2024-02-21T10:44:29;3.30;;;2.03;;
37559;SDS011;23398;50.928;7.084;2024-02-21T10:46:57;4.93;;;2.00;;
37559;SDS011;23398;50.928;7.084;2024-02-21T10:49:24;3.78;;;2.08;;
37559;SDS011;23398;50.928;7.084;2024-02-21T10:51:53;4.38;;;2.00;;
37559;SDS011;23398;50.928;7.084;2024-02-21T10:57:02;6.18;;;2.03;;
37559;SDS011;23398;50.928;7.084;2024-02-21T10:59:30;6.65;;;2.42;;
37559;SDS011;23398;50.928;7.084;2024-02-21T11:01:57;3.58;;;2.05;;
37559;SDS011;23398;50.928;7.084;2024-02-21T11:04:23;6.30;;;2.50;;
37559;SDS011;23398;50.928;7.084;2024-02-21T11:06:50;4.75;;;2.15;;
37559;SDS011;23398;50.928;7.084;2024-02-21T11:09:16;6.63;;;2.47;;
37559;SDS011;23398;50.928;7.084;2024-02-21T11:11:43;5.18;;;2.35;;
37559;SDS011;23398;50.928;7.084;2024-02-21T11:14:09;4.07;;;1.95;;
37559;SDS011;23398;50.928;7.084;2024-02-21T11:16:40;4.75;;;2.03;;
37559;SDS011;23398;50.928;7.084;2024-02-21T11:19:07;5.78;;;2.22;;
37559;SDS011;23398;50.928;7.084;2024-02-21T11:21:34;5.15;;;2.10;;
37559;SDS011;23398;50.928;7.084;2024-02-21T11:24:01;6.95;;;2.40;;
37559;SDS011;23398;50.928;7.084;2024-02-21T11:26:30;4.47;;;2.00;;
37559;SDS011;23398;50.928;7.084;2024-02-21T11:28:59;3.50;;;2.08;;
37559;SDS011;23398;50.928;7.084;2024-02-21T11:31:37;5.65;;;1.92;;
37559;SDS011;23398;50.928;7.084;2024-02-21T11:34:10;4.07;;;1.80;;
37559;SDS011;23398;50.928;7.084;2024-02-21T11:39:19;5.28;;;1.90;;
37559;SDS011;23398;50.928;7.084;2024-02-21T11:41:47;5.90;;;1.95;;
37559;SDS011;23398;50.928;7.084;2024-02-21T11:44:23;3.45;;;1.70;;
37559;SDS011;23398;50.928;7.084;2024-02-21T11:46:49;3.17;;;1.83;;
37559;SDS011;23398;50.928;7.084;2024-02-21T11:49:14;5.40;;;2.25;;
37559;SDS011;23398;50.928;7.084;2024-02-21T11:51:40;5.05;;;2.20;;
37559;SDS011;23398;50.928;7.084;2024-02-21T11:54:06;3.80;;;1.90;;
37559;SDS011;23398;50.928;7.084;2024-02-21T11:56:31;3.33;;;1.70;;
37559;SDS011;23398;50.928;7.084;2024-02-21T11:58:58;4.25;;;1.98;;
37559;SDS011;23398;50.928;7.084;2024-02-21T12:01:24;4.53;;;1.88;;
37559;SDS011;23398;50.928;7.084;2024-02-21T12:03:49;3.13;;;1.80;;
37559;SDS011;23398;50.928;7.084;2024-02-21T12:06:16;2.53;;;1.80;;
37559;SDS011;23398;50.928;7.084;2024-02-21T12:08:47;4.32;;;2.05;;
37559;SDS011;23398;50.928;7.084;2024-02-21T12:11:19;5.18;;;2.13;;
37559;SDS011;23398;50.928;7.084;2024-02-21T12:13:58;3.92;;;1.65;;
37559;SDS011;23398;50.928;7.084;2024-02-21T12:16:29;3.30;;;1.77;;
37559;SDS011;23398;50.928;7.084;2024-02-21T12:18:56;4.45;;;2.00;;
37559;SDS011;23398;50.928;7.084;2024-02-21T12:21:40;3.30;;;1.90;;
37559;SDS011;23398;50.928;7.084;2024-02-21T12:26:39;5.60;;;2.20;;
37559;SDS011;23398;50.928;7.084;2024-02-21T12:29:05;5.32;;;1.90;;
37559;SDS011;23398;50.928;7.084;2024-02-21T12:31:31;4.25;;;2.10;;
37559;SDS011;23398;50.928;7.084;2024-02-21T12:33:57;3.20;;;1.80;;
37559;SDS011;23398;50.928;7.084;2024-02-21T12:36:22;4.43;;;1.88;;
37559;SDS011;23398;50.928;7.084;2024-02-21T12:38:48;3.65;;;1.80;;
37559;SDS011;23398;50.928;7.084;2024-02-21T12:41:14;2.65;;;1.58;;
37559;SDS011;23398;50.928;7.084;2024-02-21T12:43:40;3.67;;;1.60;;
37559;SDS011;23398;50.928;7.084;2024-02-21T12:46:06;4.20;;;1.90;;
37559;SDS011;23398;50.928;7.084;2024-02-21T12:48:34;3.90;;;1.80;;
37559;SDS011;23398;50.928;7.084;2024-02-21T12:51:00;3.75;;;1.60;;
37559;SDS011;23398;50.928;7.084;2024-02-21T12:53:26;6.78;;;2.20;;
37559;SDS011;23398;50.928;7.084;2024-02-21T12:55:51;4.82;;;2.13;;
37559;SDS011;23398;50.928;7.084;2024-02-21T12:58:18;4.60;;;1.95;;
37559;SDS011;23398;50.928;7.084;2024-02-21T13:00:43;4.38;;;1.92;;
37559;SDS011;23398;50.928;7.084;2024-02-21T13:03:09;6.10;;;2.08;;
37559;SDS011;23398;50.928;7.084;2024-02-21T13:05:35;4.32;;;2.10;;
37559;SDS011;23398;50.928;7.084;2024-02-21T13:08:01;4.03;;;1.83;;
37559;SDS011;23398;50.928;7.084;2024-02-21T13:10:27;4.18;;;1.88;;
37559;SDS011;23398;50.928;7.084;2024-02-21T13:12:53;3.67;;;1.63;;
37559;SDS011;23398;50.928;7.084;2024-02-21T13:15:19;3.90;;;1.95;;
37559;SDS011;23398;50.928;7.084;2024-02-21T13:17:45;2.53;;;1.80;;
37559;SDS011;23398;50.928;7.084;2024-02-21T13:20:10;4.80;;;1.92;;
37559;SDS011;23398;50.928;7.084;2024-02-21T13:22:36;4.78;;;1.70;;
37559;SDS011;23398;50.928;7.084;2024-02-21T13:25:02;4.93;;;2.03;;
37559;SDS011;23398;50.928;7.084;2024-02-21T13:27:32;3.22;;;1.77;;
37559;SDS011;23398;50.928;7.084;2024-02-21T13:29:58;2.88;;;1.50;;
37559;SDS011;23398;50.928;7.084;2024-02-21T13:32:25;3.83;;;1.77;;
37559;SDS011;23398;50.928;7.084;2024-02-21T13:34:50;2.45;;;1.55;;
37559;SDS011;23398;50.928;7.084;2024-02-21T13:37:17;4.05;;;1.90;;
37559;SDS011;23398;50.928;7.084;2024-02-21T13:39:43;3.78;;;1.75;;
37559;SDS011;23398;50.928;7.084;2024-02-21T13:42:09;5.07;;;1.80;;
37559;SDS011;23398;50.928;7.084;2024-02-21T13:44:35;4.40;;;1.85;;
37559;SDS011;23398;50.928;7.084;2024-02-21T13:47:01;3.67;;;1.80;;
37559;SDS011;23398;50.928;7.084;2024-02-21T13:49:27;3.42;;;1.70;;
37559;SDS011;23398;50.928;7.084;2024-02-21T13:51:53;3.63;;;1.90;;
37559;SDS011;23398;50.928;7.084;2024-02-21T13:54:19;3.85;;;1.85;;
37559;SDS011;23398;50.928;7.084;2024-02-21T13:56:46;3.28;;;1.83;;
37559;SDS011;23398;50.928;7.084;2024-02-21T13:59:12;3.50;;;1.80;;
37559;SDS011;23398;50.928;7.084;2024-02-21T14:01:40;4.80;;;1.77;;
37559;SDS011;23398;50.928;7.084;2024-02-21T14:04:06;3.20;;;1.85;;
37559;SDS011;23398;50.928;7.084;2024-02-21T14:06:32;3.42;;;1.90;;
37559;SDS011;23398;50.928;7.084;2024-02-21T14:08:57;4.43;;;1.83;;
37559;SDS011;23398;50.928;7.084;2024-02-21T14:11:23;3.88;;;1.83;;
37559;SDS011;23398;50.928;7.084;2024-02-21T14:13:48;4.13;;;2.05;;
37559;SDS011;23398;50.928;7.084;2024-02-21T14:16:14;2.95;;;1.67;;
37559;SDS011;23398;50.928;7.084;2024-02-21T14:18:40;3.47;;;1.60;;
37559;SDS011;23398;50.928;7.084;2024-02-21T14:21:08;4.35;;;1.90;;
37559;SDS011;23398;50.928;7.084;2024-02-21T14:23:37;5.32;;;2.00;;
37559;SDS011;23398;50.928;7.084;2024-02-21T14:26:03;3.30;;;1.65;;
37559;SDS011;23398;50.928;7.084;2024-02-21T14:28:29;3.20;;;1.50;;
37559;SDS011;23398;50.928;7.084;2024-02-21T14:30:55;2.80;;;1.58;;
37559;SDS011;23398;50.928;7.084;2024-02-21T14:33:23;4.18;;;2.03;;
37559;SDS011;23398;50.928;7.084;2024-02-21T14:35:49;3.08;;;1.75;;
37559;SDS011;23398;50.928;7.084;2024-02-21T14:38:16;3.42;;;1.88;;
37559;SDS011;23398;50.928;7.084;2024-02-21T14:40:41;3.10;;;1.63;;
37559;SDS011;23398;50.928;7.084;2024-02-21T14:43:07;3.08;;;1.70;;
37559;SDS011;23398;50.928;7.084;2024-02-21T14:45:33;4.85;;;2.00;;
37559;SDS011;23398;50.928;7.084;2024-02-21T14:47:59;3.85;;;1.70;;
37559;SDS011;23398;50.928;7.084;2024-02-21T14:50:25;5.22;;;1.90;;
37559;SDS011;23398;50.928;7.084;2024-02-21T14:52:50;4.10;;;1.65;;